createdAt,value
2023-03-18T00:03:48.783Z,-1.24
2023-03-18T00:08:52.572Z,-1.29
2023-03-18T00:13:55.634Z,-1.36
2023-03-18T00:18:58.489Z,-1.37
2023-03-18T00:24:01.800Z,-1.41
2023-03-18T00:29:04.896Z,-1.45
2023-03-18T00:34:08.374Z,-1.46
2023-03-18T00:39:13.320Z,-1.47
2023-03-18T00:44:16.344Z,-1.49
2023-03-18T00:49:19.925Z,-1.52
2023-03-18T00:54:24.783Z,-1.56
2023-03-18T00:59:27.877Z,-1.59
2023-03-18T01:04:31.302Z,-1.62
2023-03-18T01:09:34.468Z,-1.65
2023-03-18T01:14:39.671Z,-1.65
2023-03-18T01:19:43.725Z,-1.60
2023-03-18T01:24:47.197Z,-1.59
2023-03-18T01:29:50.221Z,-1.58
2023-03-18T01:34:53.129Z,-1.62
2023-03-18T01:39:56.135Z,-1.63
2023-03-18T01:45:24.763Z,-1.68
2023-03-18T01:50:37.968Z,-1.68
2023-03-18T01:55:42.412Z,-1.67
2023-03-18T02:00:54.683Z,-1.65
2023-03-18T02:05:57.884Z,-1.65
2023-03-18T02:11:02.382Z,-1.65
2023-03-18T02:16:13.817Z,-1.61
2023-03-18T02:21:33.403Z,-1.58
2023-03-18T02:26:59.044Z,-1.59
2023-03-18T02:32:06.202Z,-1.63
2023-03-18T02:37:10.050Z,-1.67
2023-03-18T02:42:14.569Z,-1.73
2023-03-18T02:47:22.874Z,-1.81
2023-03-18T02:52:26.789Z,-1.93
2023-03-18T02:57:29.757Z,-2.01
2023-03-18T03:02:32.909Z,-2.12
2023-03-18T03:07:35.934Z,-2.21
2023-03-18T03:12:39.867Z,-2.27
2023-03-18T03:17:42.795Z,-2.30
2023-03-18T03:22:46.290Z,-2.27
2023-03-18T03:27:49.879Z,-2.27
2023-03-18T03:32:52.895Z,-2.30
2023-03-18T03:37:55.797Z,-2.36
2023-03-18T03:42:59.006Z,-2.43
2023-03-18T03:48:02.332Z,-2.50
2023-03-18T03:53:06.816Z,-2.57
2023-03-18T03:58:10.639Z,-2.64
2023-03-18T04:03:13.677Z,-2.68
2023-03-18T04:08:17.996Z,-2.74
2023-03-18T04:13:20.755Z,-2.71
2023-03-18T04:18:23.686Z,-2.72
2023-03-18T04:23:26.908Z,-2.75
2023-03-18T04:28:30.222Z,-2.77
2023-03-18T04:33:33.732Z,-2.75
2023-03-18T04:38:37.322Z,-2.75
2023-03-18T04:43:40.054Z,-2.80
2023-03-18T04:48:43.632Z,-2.85
2023-03-18T04:53:46.611Z,-2.89
2023-03-18T04:58:49.899Z,-2.91
2023-03-18T05:03:52.807Z,-2.92
2023-03-18T05:08:57.113Z,-2.90
2023-03-18T05:14:00.170Z,-2.77
2023-03-18T05:19:03.597Z,-2.64
2023-03-18T05:24:06.918Z,-2.47
2023-03-18T05:29:09.944Z,-2.27
2023-03-18T05:34:13.609Z,-2.01
2023-03-18T05:39:16.922Z,-1.75
2023-03-18T05:44:19.993Z,-1.49
2023-03-18T05:49:23.714Z,-1.22
2023-03-18T05:54:27.080Z,-1.00
2023-03-18T05:59:31.616Z,-0.76
2023-03-18T06:04:34.606Z,-0.51
2023-03-18T06:09:37.718Z,-0.24
2023-03-18T06:14:40.606Z,0.02
2023-03-18T06:19:45.079Z,0.27
2023-03-18T06:24:48.530Z,0.51
2023-03-18T06:29:51.749Z,0.69
2023-03-18T06:34:54.668Z,0.78
2023-03-18T06:39:58.661Z,0.85
2023-03-18T06:45:01.824Z,0.96
2023-03-18T06:50:05.900Z,1.17
2023-03-18T06:55:09.505Z,1.42
2023-03-18T07:00:13.293Z,1.73
2023-03-18T07:05:17.240Z,2.08
2023-03-18T07:10:33.016Z,2.45
2023-03-18T07:15:36.363Z,2.74
2023-03-18T07:20:40.267Z,3.00
2023-03-18T07:25:44.785Z,3.33
2023-03-18T07:30:48.158Z,3.69
2023-03-18T07:35:51.643Z,4.00
2023-03-18T07:40:54.580Z,4.31
2023-03-18T07:45:58.710Z,4.57
2023-03-18T07:51:02.766Z,4.85
2023-03-18T07:56:07.328Z,5.14
2023-03-18T08:01:10.414Z,5.44
2023-03-18T08:06:15.525Z,5.77
2023-03-18T08:11:18.738Z,6.85
2023-03-18T08:16:21.773Z,8.20
2023-03-18T08:21:24.803Z,8.79
2023-03-18T08:26:27.955Z,9.84
2023-03-18T08:31:31.172Z,10.53
2023-03-18T08:36:35.221Z,11.12
2023-03-18T08:41:38.808Z,11.68
2023-03-18T08:46:41.912Z,12.35
2023-03-18T08:51:45.116Z,12.82
2023-03-18T08:56:48.060Z,13.09
2023-03-18T09:01:51.604Z,13.34
2023-03-18T09:06:54.683Z,13.60
2023-03-18T09:11:57.686Z,14.06
2023-03-18T09:17:01.158Z,14.57
2023-03-18T09:22:04.623Z,14.48
2023-03-18T09:27:07.650Z,14.32
2023-03-18T09:32:11.272Z,14.09
2023-03-18T09:37:14.989Z,13.68
2023-03-18T09:43:02.514Z,13.54
2023-03-18T09:48:43.481Z,13.51
2023-03-18T09:53:59.587Z,14.04
2023-03-18T09:59:28.726Z,14.99
2023-03-18T10:04:49.433Z,15.85
2023-03-18T10:10:22.627Z,16.09
2023-03-18T10:15:41.581Z,15.80
2023-03-18T10:21:24.774Z,15.45
2023-03-18T10:26:58.073Z,15.34
2023-03-18T10:32:21.614Z,15.26
2023-03-18T10:37:39.384Z,15.11
2023-03-18T10:42:44.107Z,15.75
2023-03-18T10:48:11.006Z,16.45
2023-03-18T10:53:55.689Z,16.85
2023-03-18T10:58:59.139Z,17.05
2023-03-18T11:04:06.977Z,17.42
2023-03-18T11:09:15.927Z,17.87
2023-03-18T11:14:28.908Z,18.21
2023-03-18T11:19:47.856Z,18.48
2023-03-18T11:25:11.668Z,18.61
2023-03-18T11:30:41.063Z,18.84
2023-03-18T11:35:52.007Z,18.90
2023-03-18T11:41:17.622Z,18.90
2023-03-18T11:46:27.633Z,18.72
2023-03-18T11:51:55.234Z,18.87
2023-03-18T11:57:45.289Z,18.98
2023-03-18T12:03:17.052Z,19.11
2023-03-18T12:08:57.072Z,19.27
2023-03-18T12:14:23.486Z,19.69
2023-03-18T12:20:10.176Z,19.52
2023-03-18T12:25:52.695Z,19.46
2023-03-18T12:31:22.970Z,19.23
2023-03-18T12:36:56.250Z,19.36
2023-03-18T12:42:09.228Z,18.92
2023-03-18T12:47:42.201Z,18.41
2023-03-18T12:53:22.935Z,18.03
2023-03-18T12:58:37.902Z,17.64
2023-03-18T13:03:44.785Z,17.30
2023-03-18T13:09:13.094Z,16.72
2023-03-18T13:14:41.198Z,16.10
2023-03-18T13:19:45.150Z,15.93
2023-03-18T13:25:13.814Z,15.76
2023-03-18T13:30:48.674Z,15.87
2023-03-18T13:36:22.827Z,15.90
2023-03-18T13:41:58.079Z,16.04
2023-03-18T13:47:09.123Z,16.02
2023-03-18T13:52:43.947Z,15.73
2023-03-18T13:58:06.610Z,15.55
2023-03-18T14:03:30.116Z,15.49
2023-03-18T14:08:39.305Z,15.61
2023-03-18T14:14:06.087Z,15.70
2023-03-18T14:19:28.723Z,15.76
2023-03-18T14:24:32.168Z,15.82
2023-03-18T14:29:42.356Z,15.92
2023-03-18T14:34:59.011Z,15.82
2023-03-18T14:40:16.286Z,15.89
2023-03-18T14:45:33.604Z,16.08
2023-03-18T14:50:47.566Z,16.07
2023-03-18T14:55:57.249Z,15.97
2023-03-18T15:01:12.297Z,15.86
2023-03-18T15:06:21.972Z,15.75
2023-03-18T15:11:25.576Z,15.71
2023-03-18T15:16:33.176Z,15.50
2023-03-18T15:21:37.601Z,15.49
2023-03-18T15:26:42.508Z,15.31
2023-03-18T15:31:45.779Z,14.87
2023-03-18T15:37:01.013Z,14.41
2023-03-18T15:42:15.555Z,13.99
2023-03-18T15:47:32.224Z,13.72
2023-03-18T15:52:41.896Z,13.40
2023-03-18T15:57:45.102Z,13.07
2023-03-18T16:02:48.809Z,12.75
2023-03-18T16:07:53.071Z,12.47
2023-03-18T16:13:01.941Z,12.22
2023-03-18T16:18:04.956Z,11.98
2023-03-18T16:23:08.145Z,11.72
2023-03-18T16:28:22.568Z,11.51
2023-03-18T16:33:26.224Z,11.30
2023-03-18T16:38:31.110Z,11.10
2023-03-18T16:43:33.995Z,10.88
2023-03-18T16:48:36.862Z,10.67
2023-03-18T16:53:40.345Z,10.47
2023-03-18T16:58:44.777Z,10.28
2023-03-18T17:03:48.163Z,10.08
2023-03-18T17:08:52.552Z,9.88
2023-03-18T17:13:56.453Z,9.67
2023-03-18T17:18:59.596Z,9.47
2023-03-18T17:24:03.705Z,9.22
2023-03-18T17:29:08.079Z,9.02
2023-03-18T17:34:14.060Z,8.79
2023-03-18T17:39:17.709Z,8.52
2023-03-18T17:44:30.185Z,8.24
2023-03-18T17:49:33.176Z,7.98
2023-03-18T17:54:36.607Z,7.76
2023-03-18T17:59:39.582Z,7.53
2023-03-18T18:04:43.463Z,7.34
2023-03-18T18:09:47.344Z,7.15
2023-03-18T18:14:50.743Z,6.96
2023-03-18T18:19:54.732Z,6.78
2023-03-18T18:24:58.112Z,6.62
2023-03-18T18:30:00.938Z,6.46
2023-03-18T18:35:04.556Z,6.29
2023-03-18T18:40:10.708Z,6.11
2023-03-18T18:45:19.164Z,5.97
2023-03-18T18:50:32.279Z,5.85
2023-03-18T18:55:36.077Z,5.73
2023-03-18T19:00:39.153Z,5.63
2023-03-18T19:05:43.931Z,5.52
2023-03-18T19:10:47.011Z,5.41
2023-03-18T19:15:55.987Z,5.30
2023-03-18T19:20:58.955Z,5.21
2023-03-18T19:26:06.378Z,5.10
2023-03-18T19:31:13.852Z,5.02
2023-03-18T19:36:27.205Z,4.92
2023-03-18T19:41:30.723Z,4.80
2023-03-18T19:46:39.231Z,4.71
2023-03-18T19:51:42.641Z,4.69
2023-03-18T19:56:46.241Z,4.67
2023-03-18T20:01:50.557Z,4.69
2023-03-18T20:06:54.857Z,4.74
2023-03-18T20:12:04.526Z,4.80
2023-03-18T20:17:42.345Z,4.78
2023-03-18T20:22:59.441Z,4.73
2023-03-18T20:28:07.524Z,4.64
2023-03-18T20:33:10.615Z,4.51
2023-03-18T20:38:39.265Z,4.40
2023-03-18T20:43:42.751Z,4.26
2023-03-18T20:48:46.158Z,4.13
2023-03-18T20:53:50.349Z,3.99
2023-03-18T20:58:53.732Z,3.86
2023-03-18T21:04:01.752Z,3.73
2023-03-18T21:09:05.277Z,3.62
2023-03-18T21:14:14.729Z,3.53
2023-03-18T21:19:17.673Z,3.43
2023-03-18T21:24:27.675Z,3.35
2023-03-18T21:29:30.708Z,3.25
2023-03-18T21:34:33.823Z,3.22
2023-03-18T21:39:36.889Z,3.15
2023-03-18T21:44:39.956Z,3.08
2023-03-18T21:49:44.134Z,3.02
2023-03-18T21:54:47.422Z,2.95
2023-03-18T21:59:52.557Z,2.90
2023-03-18T22:04:59.257Z,2.88
2023-03-18T22:10:02.406Z,2.84
2023-03-18T22:15:36.778Z,2.80
2023-03-18T22:20:41.095Z,2.79
2023-03-18T22:25:47.337Z,2.77
2023-03-18T22:30:52.840Z,2.75
2023-03-18T22:35:56.498Z,2.76
2023-03-18T22:40:59.463Z,2.79
2023-03-18T22:46:06.613Z,2.74
2023-03-18T22:51:27.771Z,2.63
2023-03-18T22:56:32.419Z,2.58
2023-03-18T23:01:37.419Z,2.53
2023-03-18T23:06:41.738Z,2.47
2023-03-18T23:11:46.761Z,2.37
2023-03-18T23:16:49.726Z,2.28
2023-03-18T23:21:52.648Z,2.16
2023-03-18T23:26:55.604Z,2.07
2023-03-18T23:31:58.853Z,1.98
2023-03-18T23:37:02.701Z,1.94
2023-03-18T23:42:06.248Z,1.90
2023-03-18T23:47:11.158Z,1.85
2023-03-18T23:52:15.823Z,1.80
2023-03-18T23:57:18.791Z,1.75
